Time;durP1;ratioP1;P1;durP2;ratioP2;P2;SDS_P1;SDS_P2;PMS_P1;PMS_P2;Temp;Humidity;BMP_temperature;BMP_pressure;BME280_temperature;BME280_humidity;BME280_pressure;Samples;Min_cycle;Max_cycle;Signal;HPM_P1;HPM_P2
2021/11/21 00:00:41;;;;;;;27.90;22.17;;;9.90;93.80;;;;;;4993581;28;20524;-70
2021/11/21 00:03:08;;;;;;;25.27;21.10;;;9.90;93.70;;;;;;4993241;28;20460;-70
2021/11/21 00:05:40;;;;;;;26.33;20.23;;;9.90;93.80;;;;;;4993555;28;20800;-69
2021/11/21 00:08:07;;;;;;;26.80;21.20;;;9.90;93.90;;;;;;4993547;28;20564;-69
2021/11/21 00:10:34;;;;;;;29.70;23.27;;;9.70;94.00;;;;;;4993709;28;20455;-69
2021/11/21 00:13:01;;;;;;;30.30;22.10;;;9.70;94.20;;;;;;4996119;28;20794;-69
2021/11/21 00:15:28;;;;;;;28.97;21.87;;;9.60;94.50;;;;;;4997055;28;20484;-69
2021/11/21 00:17:56;;;;;;;30.07;23.30;;;9.60;94.70;;;;;;4997138;28;20479;-69
2021/11/21 00:20:23;;;;;;;31.77;23.77;;;9.50;94.90;;;;;;4996836;28;20460;-69
2021/11/21 00:22:50;;;;;;;30.80;23.60;;;9.40;95.10;;;;;;4997034;28;20474;-69
2021/11/21 00:25:17;;;;;;;30.50;22.87;;;9.40;95.20;;;;;;4996726;28;20435;-69
2021/11/21 00:27:44;;;;;;;31.00;23.00;;;9.40;95.50;;;;;;4996980;28;20464;-69
2021/11/21 00:30:11;;;;;;;33.43;24.60;;;9.30;95.70;;;;;;4996650;28;20446;-69
2021/11/21 00:32:38;;;;;;;32.23;25.33;;;9.30;96.00;;;;;;4996502;28;20780;-69
2021/11/21 00:35:06;;;;;;;33.30;23.37;;;9.30;96.20;;;;;;4997020;28;20476;-69
2021/11/21 00:37:33;;;;;;;33.63;25.23;;;9.40;96.20;;;;;;4996214;28;20562;-69
2021/11/21 00:40:00;;;;;;;35.50;24.37;;;9.40;96.20;;;;;;4996471;28;20448;-69
2021/11/21 00:42:27;;;;;;;35.00;26.23;;;9.30;96.40;;;;;;4996735;28;20440;-69
2021/11/21 00:44:54;;;;;;;36.13;26.80;;;9.30;96.60;;;;;;4996482;28;20452;-69
2021/11/21 00:47:21;;;;;;;38.27;25.60;;;9.30;96.60;;;;;;4996509;28;20506;-69
2021/11/21 00:49:47;;;;;;;37.93;26.00;;;9.20;96.70;;;;;;4996534;28;20448;-69
2021/11/21 00:52:16;;;;;;;35.00;25.13;;;9.20;96.80;;;;;;4996337;28;20452;-69
2021/11/21 00:54:49;;;;;;;33.10;25.77;;;9.10;96.90;;;;;;4996191;28;20838;-69
2021/11/21 00:57:16;;;;;;;36.43;26.23;;;9.10;97.10;;;;;;4995927;28;20559;-69
2021/11/21 00:59:44;;;;;;;33.37;24.00;;;9.10;97.20;;;;;;4996288;28;20456;-69
2021/11/21 01:02:13;;;;;;;34.30;25.67;;;9.10;97.40;;;;;;4996145;28;20808;-69
2021/11/21 01:04:42;;;;;;;35.20;24.30;;;9.10;97.60;;;;;;4996690;28;20783;-69
2021/11/21 01:07:10;;;;;;;39.40;27.00;;;9.10;97.60;;;;;;4995725;28;20464;-69
2021/11/21 01:09:38;;;;;;;38.23;25.67;;;9.10;97.60;;;;;;4995926;28;20462;-69
2021/11/21 01:12:06;;;;;;;35.50;25.17;;;9.10;97.50;;;;;;4995983;28;20468;-69
2021/11/21 01:14:33;;;;;;;36.30;24.90;;;9.20;97.50;;;;;;4996174;28;20576;-69
2021/11/21 01:17:00;;;;;;;38.30;26.90;;;9.20;97.40;;;;;;4995824;28;20472;-69
2021/11/21 01:19:26;;;;;;;37.03;26.77;;;9.20;97.60;;;;;;4995696;28;20464;-69
2021/11/21 01:21:53;;;;;;;35.50;25.23;;;9.20;97.70;;;;;;4995895;28;20436;-69
2021/11/21 01:24:20;;;;;;;38.23;26.63;;;9.20;97.80;;;;;;4994882;28;20946;-69
2021/11/21 01:26:48;;;;;;;38.93;26.90;;;9.10;97.60;;;;;;4995595;28;20452;-69
2021/11/21 01:29:15;;;;;;;39.03;27.20;;;9.00;97.70;;;;;;4995595;28;20454;-69
2021/11/21 01:31:42;;;;;;;34.33;24.50;;;9.00;98.00;;;;;;4995673;28;20528;-69
2021/11/21 01:34:09;;;;;;;37.10;25.77;;;9.00;98.10;;;;;;4995521;28;20487;-69
2021/11/21 01:36:36;;;;;;;40.83;26.67;;;9.00;98.30;;;;;;4995802;28;20444;-69
2021/11/21 01:39:03;;;;;;;38.30;26.07;;;8.90;98.10;;;;;;4995410;28;20555;-69
2021/11/21 01:41:30;;;;;;;39.70;26.27;;;8.90;98.30;;;;;;4995501;28;20478;-69
2021/11/21 01:43:58;;;;;;;38.73;26.90;;;9.00;98.50;;;;;;4995397;28;20455;-69
2021/11/21 01:46:33;;;;;;;35.67;24.27;;;9.00;98.30;;;;;;4996001;28;20452;-69
2021/11/21 01:49:00;;;;;;;38.33;26.63;;;8.90;98.40;;;;;;4995483;28;21048;-69
2021/11/21 01:51:27;;;;;;;41.70;27.53;;;9.00;98.60;;;;;;4995358;28;20499;-69
2021/11/21 01:53:53;;;;;;;36.67;26.33;;;8.90;98.50;;;;;;4995490;28;20448;-69
2021/11/21 01:56:20;;;;;;;37.37;27.13;;;8.90;98.60;;;;;;4995307;28;20459;-69
2021/11/21 01:58:47;;;;;;;37.40;25.83;;;8.90;98.70;;;;;;4995079;28;20479;-69
2021/11/21 02:01:15;;;;;;;34.40;25.23;;;8.90;98.80;;;;;;4995105;28;20457;-69
2021/11/21 02:03:42;;;;;;;41.60;27.00;;;8.90;98.90;;;;;;4994986;28;20455;-69
2021/11/21 02:06:09;;;;;;;41.60;28.43;;;8.90;98.80;;;;;;4995035;28;20420;-69
2021/11/21 02:08:36;;;;;;;39.53;28.40;;;9.00;99.00;;;;;;4994581;28;20981;-70
2021/11/21 02:11:03;;;;;;;41.27;27.63;;;9.00;99.00;;;;;;4994907;28;20555;-69
2021/11/21 02:13:30;;;;;;;47.00;29.20;;;9.00;99.20;;;;;;4994549;28;20961;-69
2021/11/21 02:15:57;;;;;;;45.03;29.63;;;9.00;99.20;;;;;;4994971;28;20484;-69
2021/11/21 02:18:26;;;;;;;41.43;28.13;;;8.90;99.10;;;;;;4994396;28;20978;-69
2021/11/21 02:20:56;;;;;;;40.87;27.23;;;8.90;99.20;;;;;;4994450;28;20969;-70
2021/11/21 02:23:25;;;;;;;41.47;28.73;;;9.00;99.40;;;;;;4994640;28;20445;-69
2021/11/21 02:25:52;;;;;;;42.57;28.23;;;8.90;99.40;;;;;;4994563;28;20456;-69
2021/11/21 02:28:20;;;;;;;43.67;29.33;;;8.80;99.60;;;;;;4995474;28;20472;-69
2021/11/21 02:30:47;;;;;;;44.00;27.20;;;8.90;99.70;;;;;;4994637;28;20441;-69
2021/11/21 02:33:16;;;;;;;40.33;28.10;;;8.80;99.80;;;;;;4994426;28;20455;-69
2021/11/21 02:35:44;;;;;;;44.07;28.60;;;8.80;99.80;;;;;;4993233;28;21020;-69
2021/11/21 02:38:14;;;;;;;43.00;29.73;;;8.80;99.90;;;;;;4994074;28;20472;-69
2021/11/21 02:40:41;;;;;;;46.73;30.23;;;8.80;99.90;;;;;;4994397;28;20448;-69
2021/11/21 02:43:08;;;;;;;45.87;29.20;;;8.80;99.90;;;;;;4994326;28;20455;-69
2021/11/21 02:45:35;;;;;;;43.30;28.93;;;8.90;99.90;;;;;;4994272;28;20451;-69
2021/11/21 02:48:02;;;;;;;45.30;31.40;;;8.90;99.90;;;;;;4994449;28;20474;-69
2021/11/21 02:50:31;;;;;;;42.03;29.07;;;8.80;99.80;;;;;;4994287;28;20800;-69
2021/11/21 02:52:59;;;;;;;49.70;29.40;;;8.80;99.90;;;;;;4994195;28;20547;-69
2021/11/21 02:55:29;;;;;;;47.13;30.00;;;8.80;99.90;;;;;;4993794;28;20476;-69
2021/11/21 02:57:56;;;;;;;44.87;29.93;;;8.80;99.90;;;;;;4994886;28;20464;-69
2021/11/21 03:00:23;;;;;;;45.73;31.07;;;8.80;99.90;;;;;;4993852;28;20432;-69
2021/11/21 03:02:50;;;;;;;44.33;29.30;;;8.80;99.90;;;;;;4993683;28;20448;-69
2021/11/21 03:05:20;;;;;;;45.90;29.67;;;8.70;99.90;;;;;;4994047;28;20428;-69
2021/11/21 03:07:47;;;;;;;44.30;29.17;;;8.70;99.90;;;;;;4993534;28;21012;-69
2021/11/21 03:10:18;;;;;;;44.40;28.17;;;8.70;99.90;;;;;;4993701;28;20925;-69
2021/11/21 03:12:47;;;;;;;42.40;28.60;;;8.70;99.90;;;;;;4994057;28;20436;-69
2021/11/21 03:15:14;;;;;;;45.70;27.47;;;8.70;99.90;;;;;;4994117;28;20476;-69
2021/11/21 03:17:43;;;;;;;43.87;27.47;;;8.70;99.90;;;;;;4993913;28;20480;-69
2021/11/21 03:20:12;;;;;;;38.80;26.33;;;8.80;99.90;;;;;;4993647;28;20468;-69
2021/11/21 03:22:39;;;;;;;43.13;26.13;;;8.70;99.90;;;;;;4993501;28;21018;-69
2021/11/21 03:25:06;;;;;;;38.10;25.50;;;8.80;99.90;;;;;;4993911;28;20452;-69
2021/11/21 03:27:33;;;;;;;43.83;28.03;;;8.80;99.90;;;;;;4993639;28;20474;-69
2021/11/21 03:30:02;;;;;;;41.93;26.40;;;8.80;99.90;;;;;;4993678;28;20445;-69
2021/11/21 03:32:29;;;;;;;40.30;25.47;;;8.80;99.90;;;;;;4993695;28;20467;-69
2021/11/21 03:34:56;;;;;;;43.20;27.20;;;8.90;99.90;;;;;;4993405;28;21104;-69
2021/11/21 03:37:24;;;;;;;39.93;25.80;;;8.90;99.90;;;;;;4993705;28;20470;-69
2021/11/21 03:39:50;;;;;;;37.10;25.83;;;8.90;99.90;;;;;;4993704;28;20453;-69
2021/11/21 03:42:18;;;;;;;39.27;25.23;;;8.90;99.90;;;;;;4993836;28;20444;-69
2021/11/21 03:44:45;;;;;;;38.53;25.33;;;8.90;99.90;;;;;;4993435;28;20815;-70
2021/11/21 03:47:13;;;;;;;41.87;25.60;;;8.90;99.90;;;;;;4995026;28;20468;-69
2021/11/21 03:49:40;;;;;;;37.13;23.67;;;8.90;99.90;;;;;;4997634;28;20456;-69
2021/11/21 03:52:07;;;;;;;45.80;26.87;;;8.90;99.90;;;;;;4997530;28;20818;-69
2021/11/21 03:54:34;;;;;;;38.07;24.27;;;8.80;99.90;;;;;;4997474;28;20448;-69
2021/11/21 03:57:01;;;;;;;38.83;23.07;;;8.80;99.90;;;;;;4997410;28;20518;-68
2021/11/21 03:59:28;;;;;;;41.73;25.80;;;8.80;99.90;;;;;;4997327;28;20956;-69
2021/11/21 04:01:58;;;;;;;37.70;25.00;;;8.80;99.90;;;;;;4997299;28;20472;-69
2021/11/21 04:04:26;;;;;;;39.20;23.23;;;8.70;99.90;;;;;;4998082;28;20503;-69
2021/11/21 04:06:54;;;;;;;35.47;24.23;;;8.70;99.90;;;;;;4997095;28;20440;-69
2021/11/21 04:09:21;;;;;;;38.87;25.27;;;8.80;99.90;;;;;;4996953;28;20789;-69
2021/11/21 04:11:47;;;;;;;40.73;23.87;;;8.80;99.90;;;;;;4996843;28;20448;-69
2021/11/21 04:14:14;;;;;;;37.40;24.43;;;8.80;99.90;;;;;;4997100;28;20452;-69
2021/11/21 04:16:41;;;;;;;37.50;23.47;;;8.80;99.90;;;;;;4996943;28;20482;-69
2021/11/21 04:19:09;;;;;;;39.27;24.63;;;8.80;99.90;;;;;;4996674;28;20994;-69
2021/11/21 04:21:37;;;;;;;34.90;21.90;;;8.80;99.90;;;;;;4997000;28;20475;-69
2021/11/21 04:24:06;;;;;;;36.93;23.77;;;8.80;99.90;;;;;;4996928;28;20448;-69
2021/11/21 04:26:33;;;;;;;39.23;22.93;;;8.80;99.90;;;;;;4996622;28;20531;-69
2021/11/21 04:28:59;;;;;;;38.43;23.77;;;8.80;99.90;;;;;;4996783;28;20464;-68
2021/11/21 04:31:26;;;;;;;37.30;23.73;;;8.70;99.90;;;;;;4996826;28;20451;-69
2021/11/21 04:33:53;;;;;;;36.67;24.37;;;8.80;99.90;;;;;;4996739;28;20455;-69
2021/11/21 04:36:21;;;;;;;37.80;23.60;;;8.80;99.90;;;;;;4996611;28;20486;-70
2021/11/21 04:38:49;;;;;;;39.60;23.97;;;8.80;99.90;;;;;;4996915;28;20472;-69
2021/11/21 04:41:16;;;;;;;35.70;22.23;;;8.80;99.90;;;;;;4996835;28;20826;-69
2021/11/21 04:43:42;;;;;;;34.47;22.27;;;8.80;99.90;;;;;;4996655;28;20448;-69
2021/11/21 04:46:09;;;;;;;34.80;20.60;;;8.80;99.90;;;;;;4996600;28;20460;-69
2021/11/21 04:48:36;;;;;;;42.07;23.40;;;8.80;99.90;;;;;;4996260;28;20534;-69
2021/11/21 04:51:03;;;;;;;33.00;20.27;;;8.80;99.90;;;;;;4996491;28;20552;-69
2021/11/21 04:53:30;;;;;;;34.77;20.07;;;8.70;99.90;;;;;;4996399;28;20448;-69
2021/11/21 04:55:58;;;;;;;31.57;21.17;;;8.70;99.90;;;;;;4996273;28;20476;-69
2021/11/21 04:58:25;;;;;;;32.43;19.70;;;8.70;99.90;;;;;;4995031;28;20468;-69
2021/11/21 05:00:51;;;;;;;31.77;21.20;;;8.70;99.90;;;;;;4996317;28;20448;-69
2021/11/21 05:03:18;;;;;;;29.70;19.27;;;8.70;99.90;;;;;;4996232;28;20448;-69
2021/11/21 05:05:45;;;;;;;28.20;18.20;;;8.70;99.90;;;;;;4996171;28;20448;-69
2021/11/21 05:08:12;;;;;;;31.30;18.53;;;8.80;99.90;;;;;;4996109;28;20476;-69
2021/11/21 05:10:38;;;;;;;27.93;19.77;;;8.70;99.90;;;;;;4996051;28;20452;-69
2021/11/21 05:13:06;;;;;;;29.97;19.53;;;8.70;99.90;;;;;;4996039;28;20463;-69
2021/11/21 05:15:33;;;;;;;29.57;19.17;;;8.70;99.90;;;;;;4995861;28;20479;-69
2021/11/21 05:18:00;;;;;;;31.87;18.37;;;8.70;99.90;;;;;;4995551;28;20471;-69
2021/11/21 05:20:27;;;;;;;29.70;19.00;;;8.70;99.90;;;;;;4995586;28;20463;-69
2021/11/21 05:22:54;;;;;;;33.73;19.40;;;8.70;99.90;;;;;;4996030;28;20542;-69
2021/11/21 05:25:21;;;;;;;31.40;19.50;;;8.70;99.90;;;;;;4996090;28;20435;-69
2021/11/21 05:27:49;;;;;;;27.90;18.20;;;8.70;99.90;;;;;;4995636;28;20470;-70
2021/11/21 05:30:19;;;;;;;30.33;18.17;;;8.80;99.90;;;;;;4995808;28;20452;-70
2021/11/21 05:32:47;;;;;;;28.33;18.50;;;8.80;99.90;;;;;;4995706;28;20451;-70
2021/11/21 05:35:16;;;;;;;32.90;21.00;;;8.80;99.90;;;;;;4995719;28;20444;-70
2021/11/21 05:37:43;;;;;;;26.10;17.07;;;8.70;99.90;;;;;;4995448;28;20499;-69
2021/11/21 05:40:13;;;;;;;29.03;19.20;;;8.80;99.90;;;;;;4995356;28;20444;-70
2021/11/21 05:42:40;;;;;;;26.47;18.03;;;8.80;99.90;;;;;;4995616;28;20436;-69
2021/11/21 05:45:08;;;;;;;28.43;18.53;;;8.80;99.90;;;;;;4995509;28;20452;-69
2021/11/21 05:47:36;;;;;;;26.13;17.10;;;8.80;99.90;;;;;;4995086;28;20479;-69
2021/11/21 05:50:03;;;;;;;28.90;18.70;;;8.80;99.90;;;;;;4994955;28;20910;-69
2021/11/21 05:52:31;;;;;;;30.13;18.60;;;8.90;99.90;;;;;;4995306;28;20796;-69
2021/11/21 05:54:58;;;;;;;26.50;16.67;;;8.90;99.90;;;;;;4994932;28;20929;-69
2021/11/21 05:57:25;;;;;;;29.73;18.53;;;8.90;99.90;;;;;;4995102;28;20515;-69
2021/11/21 05:59:51;;;;;;;28.70;19.10;;;8.90;99.90;;;;;;4995376;28;20458;-69
2021/11/21 06:02:18;;;;;;;25.37;17.63;;;8.90;99.90;;;;;;4995322;28;20448;-69
2021/11/21 06:04:47;;;;;;;27.00;18.57;;;8.90;99.90;;;;;;4995298;28;20433;-69
2021/11/21 06:07:13;;;;;;;27.80;18.80;;;8.80;99.90;;;;;;4995157;28;20471;-69
2021/11/21 06:09:40;;;;;;;26.63;16.87;;;8.80;99.90;;;;;;4995113;28;20455;-69
2021/11/21 06:12:08;;;;;;;29.80;19.27;;;8.80;99.90;;;;;;4994808;28;20454;-69
2021/11/21 06:14:35;;;;;;;27.53;19.27;;;8.80;99.90;;;;;;4995117;28;20451;-69
2021/11/21 06:17:01;;;;;;;30.13;19.43;;;8.80;99.90;;;;;;4994901;28;20499;-69
2021/11/21 06:19:28;;;;;;;29.07;18.13;;;8.90;99.90;;;;;;4994583;28;20460;-69
2021/11/21 06:21:56;;;;;;;26.87;17.40;;;8.90;99.90;;;;;;4995006;28;20437;-69
2021/11/21 06:24:23;;;;;;;26.70;18.20;;;8.90;99.90;;;;;;4996452;28;20460;-70
2021/11/21 06:26:50;;;;;;;25.97;16.77;;;8.90;99.90;;;;;;4994566;28;20448;-70
2021/11/21 06:29:17;;;;;;;26.93;19.83;;;8.90;99.90;;;;;;4995284;28;20437;-70
2021/11/21 06:31:44;;;;;;;25.90;18.03;;;8.80;99.90;;;;;;4994863;28;20460;-70
2021/11/21 06:34:11;;;;;;;27.70;20.40;;;8.90;99.90;;;;;;4994646;28;20456;-70
2021/11/21 06:36:38;;;;;;;28.80;19.40;;;8.90;99.90;;;;;;4994657;28;20484;-70
2021/11/21 06:39:07;;;;;;;32.43;21.00;;;8.90;99.90;;;;;;4994606;28;20499;-70
2021/11/21 06:41:37;;;;;;;33.70;20.47;;;8.90;99.90;;;;;;4994880;28;20448;-70
2021/11/21 06:44:04;;;;;;;29.67;20.43;;;8.90;99.90;;;;;;4994479;28;20464;-70
2021/11/21 06:46:31;;;;;;;29.30;20.33;;;8.90;99.90;;;;;;4994614;28;20440;-70
2021/11/21 06:48:58;;;;;;;30.93;20.17;;;8.90;99.90;;;;;;4994411;28;20467;-69
2021/11/21 06:51:25;;;;;;;29.30;18.70;;;8.90;99.90;;;;;;4994656;28;20441;-69
2021/11/21 06:53:52;;;;;;;33.73;21.87;;;8.90;99.90;;;;;;4994649;28;20452;-69
2021/11/21 06:56:20;;;;;;;35.03;20.10;;;8.90;99.90;;;;;;4994285;28;20472;-69
2021/11/21 06:58:47;;;;;;;31.20;19.73;;;8.90;99.90;;;;;;4994277;28;20472;-69
2021/11/21 07:01:15;;;;;;;32.30;22.10;;;8.90;99.90;;;;;;4994352;28;20484;-69
2021/11/21 07:03:43;;;;;;;32.57;21.90;;;8.90;99.90;;;;;;4994008;28;20493;-69
2021/11/21 07:06:28;;;;;;;30.70;21.00;;;8.90;99.90;;;;;;4994341;28;20451;-69
2021/11/21 07:08:55;;;;;;;33.10;20.87;;;8.90;99.90;;;;;;4994191;28;20468;-69
2021/11/21 07:11:23;;;;;;;34.63;22.73;;;8.90;99.90;;;;;;4993882;28;20456;-69
2021/11/21 07:13:50;;;;;;;37.93;22.33;;;8.80;99.90;;;;;;4994211;28;20455;-69
2021/11/21 07:16:17;;;;;;;36.23;22.03;;;8.80;99.90;;;;;;4993678;28;21015;-69
2021/11/21 07:18:44;;;;;;;32.90;21.70;;;8.70;99.90;;;;;;4994044;28;20468;-69
2021/11/21 07:21:11;;;;;;;33.27;20.80;;;8.70;99.90;;;;;;4993313;28;20550;-69
2021/11/21 07:23:38;;;;;;;34.60;21.40;;;8.70;99.90;;;;;;4993993;28;20448;-69
2021/11/21 07:26:04;;;;;;;36.10;22.30;;;8.80;99.90;;;;;;4993992;28;20452;-69
2021/11/21 07:28:33;;;;;;;38.73;21.97;;;8.80;99.90;;;;;;4993962;28;20464;-69
2021/11/21 07:30:59;;;;;;;39.40;22.77;;;8.70;99.90;;;;;;4993728;28;20939;-70
2021/11/21 07:33:26;;;;;;;35.63;22.87;;;8.70;99.90;;;;;;4993653;28;20814;-70
2021/11/21 07:35:54;;;;;;;34.00;21.53;;;8.70;99.90;;;;;;4994066;28;20451;-70
2021/11/21 07:38:21;;;;;;;36.07;22.50;;;8.80;99.90;;;;;;4993970;28;20482;-69
2021/11/21 07:40:49;;;;;;;35.17;21.33;;;8.80;99.90;;;;;;4994121;28;20437;-69
2021/11/21 07:43:16;;;;;;;34.43;20.70;;;8.80;99.90;;;;;;4993803;28;20448;-69
2021/11/21 07:45:44;;;;;;;37.70;23.17;;;8.80;99.90;;;;;;4993813;28;20441;-69
2021/11/21 07:48:10;;;;;;;35.63;22.50;;;8.80;99.90;;;;;;4993791;28;20464;-69
2021/11/21 07:50:38;;;;;;;35.87;22.20;;;8.80;99.90;;;;;;4994054;28;20450;-69
2021/11/21 07:53:04;;;;;;;38.40;23.53;;;8.80;99.90;;;;;;4993808;28;20801;-69
2021/11/21 07:55:31;;;;;;;35.73;22.23;;;8.80;99.90;;;;;;4993805;28;20444;-69
2021/11/21 07:57:58;;;;;;;31.67;20.60;;;8.90;99.90;;;;;;4993257;28;20488;-69
2021/11/21 08:00:25;;;;;;;27.43;19.30;;;8.90;99.90;;;;;;4993410;28;20828;-69
2021/11/21 08:02:53;;;;;;;36.60;20.97;;;8.90;99.90;;;;;;4993401;28;20452;-69
2021/11/21 08:05:20;;;;;;;31.83;20.33;;;8.90;99.90;;;;;;4993705;28;20448;-69
2021/11/21 08:07:47;;;;;;;33.77;19.33;;;8.90;99.90;;;;;;4993579;28;20472;-69
2021/11/21 08:10:13;;;;;;;29.97;19.10;;;9.00;99.90;;;;;;4993428;28;20471;-70
2021/11/21 08:12:40;;;;;;;33.60;19.13;;;8.90;99.90;;;;;;4993474;28;20459;-70
2021/11/21 08:15:08;;;;;;;32.40;20.07;;;8.90;99.90;;;;;;4993760;28;20900;-70
2021/11/21 08:17:35;;;;;;;34.20;20.47;;;9.00;99.90;;;;;;4993649;28;20488;-69
2021/11/21 08:20:05;;;;;;;30.40;18.97;;;9.00;99.90;;;;;;4993474;28;20467;-70
2021/11/21 08:22:32;;;;;;;30.17;19.10;;;9.00;99.90;;;;;;4993601;28;20429;-69
2021/11/21 08:24:58;;;;;;;32.70;19.90;;;9.00;99.90;;;;;;4993518;28;20439;-69
2021/11/21 08:27:25;;;;;;;26.07;17.40;;;9.00;99.90;;;;;;4994296;28;20832;-69
2021/11/21 08:29:52;;;;;;;30.00;19.40;;;9.00;99.90;;;;;;4993490;28;20452;-69
2021/11/21 08:32:19;;;;;;;26.50;17.30;;;9.00;99.90;;;;;;4993196;28;20502;-69
2021/11/21 08:34:46;;;;;;;24.17;16.00;;;9.00;99.90;;;;;;4995601;28;20451;-69
2021/11/21 08:37:15;;;;;;;26.80;17.93;;;9.00;99.90;;;;;;4996811;28;20495;-69
2021/11/21 08:39:42;;;;;;;32.93;21.37;;;8.90;99.90;;;;;;4997213;28;20429;-69
2021/11/21 08:42:08;;;;;;;28.20;18.57;;;9.00;99.90;;;;;;4996851;28;20459;-69
2021/11/21 08:44:36;;;;;;;28.57;17.13;;;8.90;99.90;;;;;;4996663;28;20448;-69
2021/11/21 08:47:03;;;;;;;25.27;16.53;;;8.90;99.90;;;;;;4996660;28;20543;-69
2021/11/21 08:49:30;;;;;;;23.73;16.30;;;8.90;99.90;;;;;;4996715;28;20456;-69
2021/11/21 08:51:57;;;;;;;21.13;15.00;;;9.00;99.90;;;;;;4996624;28;20448;-69
2021/11/21 08:54:25;;;;;;;22.07;13.50;;;9.10;99.90;;;;;;4996672;28;20432;-69
2021/11/21 08:56:52;;;;;;;21.23;13.40;;;9.10;99.90;;;;;;4996161;28;20487;-69
2021/11/21 08:59:20;;;;;;;19.00;12.40;;;9.20;99.90;;;;;;4996232;28;20969;-69
2021/11/21 09:01:47;;;;;;;21.33;13.90;;;9.30;99.90;;;;;;4996120;28;20487;-69
2021/11/21 09:04:14;;;;;;;17.57;12.77;;;9.30;99.90;;;;;;4996389;28;20449;-69
2021/11/21 09:06:41;;;;;;;15.23;11.57;;;9.30;99.90;;;;;;4996072;28;20949;-69
2021/11/21 09:09:08;;;;;;;18.53;13.23;;;9.40;99.90;;;;;;4996327;28;20793;-69
2021/11/21 09:11:36;;;;;;;15.53;12.50;;;9.40;99.90;;;;;;4996088;28;20455;-69
2021/11/21 09:14:03;;;;;;;14.03;10.53;;;9.50;99.90;;;;;;4996349;28;20445;-72
2021/11/21 09:16:30;;;;;;;12.77;10.57;;;9.60;99.90;;;;;;4996211;28;20491;-73
2021/11/21 09:18:57;;;;;;;15.77;10.70;;;9.70;99.90;;;;;;4995630;28;20935;-73
2021/11/21 09:21:26;;;;;;;13.87;10.17;;;9.70;99.90;;;;;;4996159;28;20438;-73
2021/11/21 09:23:52;;;;;;;15.37;11.10;;;9.80;99.90;;;;;;4996176;28;20448;-73
2021/11/21 09:26:19;;;;;;;14.40;10.83;;;9.80;99.90;;;;;;4996057;28;20436;-73
2021/11/21 09:28:47;;;;;;;15.57;11.57;;;9.80;99.60;;;;;;4995786;28;20831;-72
2021/11/21 09:31:14;;;;;;;14.80;10.50;;;9.80;99.60;;;;;;4996037;28;20448;-73
2021/11/21 09:33:41;;;;;;;16.60;12.30;;;9.80;99.70;;;;;;4995955;28;20444;-73
2021/11/21 09:36:08;;;;;;;17.03;12.60;;;9.80;99.70;;;;;;4995865;28;20440;-73
2021/11/21 09:38:35;;;;;;;17.30;11.20;;;9.70;99.80;;;;;;4995690;28;20484;-72
2021/11/21 09:41:02;;;;;;;17.60;12.10;;;9.70;99.90;;;;;;4995714;28;20456;-72
2021/11/21 09:43:30;;;;;;;13.63;10.40;;;9.80;99.90;;;;;;4995941;28;20467;-72
2021/11/21 09:46:00;;;;;;;13.63;10.50;;;9.90;99.90;;;;;;4995517;28;20452;-72
2021/11/21 09:48:30;;;;;;;14.77;11.50;;;9.80;99.80;;;;;;4995824;28;20865;-72
2021/11/21 09:50:58;;;;;;;15.20;10.57;;;9.80;99.90;;;;;;4995780;28;20444;-72
2021/11/21 09:53:24;;;;;;;15.30;10.60;;;9.90;99.90;;;;;;4995318;28;20460;-72
2021/11/21 09:55:51;;;;;;;15.00;10.13;;;9.90;99.80;;;;;;4995510;28;20455;-72
2021/11/21 09:58:18;;;;;;;17.27;11.80;;;10.00;99.30;;;;;;4995308;28;20859;-72
2021/11/21 10:00:46;;;;;;;15.53;11.27;;;9.90;99.90;;;;;;4995394;28;20444;-72
2021/11/21 10:03:15;;;;;;;12.67;9.63;;;9.90;99.80;;;;;;4995667;28;20448;-73
2021/11/21 10:05:47;;;;;;;14.33;10.93;;;10.00;99.40;;;;;;4995210;28;20448;-73
2021/11/21 10:08:16;;;;;;;14.77;10.37;;;10.00;99.40;;;;;;4995250;28;20535;-73
2021/11/21 10:10:45;;;;;;;12.50;9.60;;;10.10;99.40;;;;;;4995163;28;20455;-73
2021/11/21 10:13:30;;;;;;;13.70;9.80;;;10.10;99.50;;;;;;4995167;28;20535;-73
2021/11/21 10:16:17;;;;;;;12.27;10.07;;;10.20;99.50;;;;;;4995108;28;20531;-73
2021/11/21 10:18:46;;;;;;;14.20;10.20;;;10.30;99.50;;;;;;4994651;28;20535;-72
2021/11/21 10:21:13;;;;;;;16.47;10.07;;;10.50;99.50;;;;;;4994663;28;20961;-72
2021/11/21 10:23:40;;;;;;;14.27;10.80;;;10.50;99.00;;;;;;4994626;28;20448;-73
2021/11/21 10:26:07;;;;;;;12.27;9.40;;;10.60;98.80;;;;;;4994890;28;20451;-73
2021/11/21 10:28:34;;;;;;;16.03;11.13;;;10.60;98.70;;;;;;4994515;28;20996;-73
2021/11/21 10:31:08;;;;;;;13.77;9.83;;;10.70;98.70;;;;;;4994799;28;20444;-73
2021/11/21 10:33:38;;;;;;;14.70;10.37;;;10.80;98.60;;;;;;4995420;28;20432;-72
2021/11/21 10:36:08;;;;;;;13.80;9.40;;;10.90;98.30;;;;;;4994804;28;20452;-73
2021/11/21 10:38:39;;;;;;;13.87;10.10;;;10.90;98.00;;;;;;4994659;28;20490;-73
2021/11/21 10:41:12;;;;;;;14.50;10.30;;;10.80;98.00;;;;;;4994947;28;20441;-73
2021/11/21 10:43:50;;;;;;;13.90;10.83;;;10.80;98.00;;;;;;4994690;28;20433;-73
2021/11/21 10:46:28;;;;;;;15.33;12.00;;;10.70;98.10;;;;;;4994673;28;20432;-73
2021/11/21 10:49:11;;;;;;;14.00;10.23;;;10.80;98.30;;;;;;4994472;28;20468;-72
2021/11/21 10:51:40;;;;;;;15.20;10.20;;;10.80;98.00;;;;;;4994557;28;20437;-72
2021/11/21 10:54:18;;;;;;;15.77;10.60;;;10.80;98.10;;;;;;4994420;28;20448;-72
2021/11/21 10:56:47;;;;;;;14.97;11.77;;;10.90;98.20;;;;;;4993628;28;20468;-72
2021/11/21 10:59:14;;;;;;;15.87;10.20;;;10.90;98.20;;;;;;4994543;28;20448;-72
2021/11/21 11:01:40;;;;;;;15.73;10.20;;;11.00;97.80;;;;;;4994501;28;20429;-73
2021/11/21 11:04:13;;;;;;;13.73;10.13;;;11.00;97.70;;;;;;4994334;28;20443;-73
2021/11/21 11:06:42;;;;;;;14.20;10.70;;;11.00;97.80;;;;;;4994264;28;20448;-73
2021/11/21 11:09:21;;;;;;;16.13;11.40;;;11.10;97.90;;;;;;4994286;28;20442;-72
2021/11/21 11:11:49;;;;;;;17.43;11.30;;;11.10;97.90;;;;;;4994091;28;20444;-74
2021/11/21 11:14:19;;;;;;;15.30;11.20;;;11.10;97.90;;;;;;4994330;28;20450;-72
2021/11/21 11:16:55;;;;;;;17.70;11.10;;;11.20;98.00;;;;;;4994061;28;20804;-74
2021/11/21 11:19:24;;;;;;;17.50;10.23;;;11.30;98.00;;;;;;4993966;28;20455;-74
2021/11/21 11:21:52;;;;;;;15.40;10.23;;;11.30;97.90;;;;;;4994298;28;20470;-74
2021/11/21 11:24:22;;;;;;;14.93;11.70;;;11.40;97.80;;;;;;4994371;28;20435;-73
2021/11/21 11:26:57;;;;;;;14.37;10.77;;;11.40;97.80;;;;;;4994985;28;21029;-70
2021/11/21 11:29:27;;;;;;;18.70;11.00;;;11.50;97.80;;;;;;4997675;28;20443;-77
2021/11/21 11:31:53;;;;;;;14.73;9.50;;;11.60;97.70;;;;;;4994287;28;20458;-75
2021/11/21 11:34:37;;;;;;;18.63;10.80;;;11.60;97.30;;;;;;4994828;28;20447;-77
2021/11/21 11:37:10;;;;;;;14.87;9.20;;;11.70;97.10;;;;;;4994905;28;20475;-79
2021/11/21 11:39:42;;;;;;;16.00;9.00;;;11.70;96.80;;;;;;4996014;28;20769;-70
2021/11/21 11:42:36;;;;;;;12.67;9.00;;;11.80;96.80;;;;;;4993779;28;20915;-69
2021/11/21 11:45:07;;;;;;;15.80;10.10;;;11.80;96.40;;;;;;4993585;28;20456;-70
2021/11/21 11:47:34;;;;;;;17.73;9.73;;;11.80;96.40;;;;;;4994233;28;20480;-70
2021/11/21 11:50:01;;;;;;;15.77;9.03;;;11.80;96.30;;;;;;4993953;28;20458;-70
2021/11/21 11:52:55;;;;;;;14.47;9.30;;;11.80;95.50;;;;;;4993500;28;20448;-70
2021/11/21 11:55:24;;;;;;;13.87;9.43;;;11.80;95.50;;;;;;4993919;28;20810;-70
2021/11/21 11:57:52;;;;;;;13.40;8.73;;;11.80;95.70;;;;;;4993691;28;20498;-70
2021/11/21 12:00:33;;;;;;;15.70;7.77;;;11.80;95.70;;;;;;4994217;28;20456;-70
2021/11/21 12:03:01;;;;;;;17.63;7.63;;;11.80;95.30;;;;;;4993971;28;20432;-70
2021/11/21 12:05:37;;;;;;;12.33;7.60;;;11.80;95.10;;;;;;4993895;28;20519;-70
2021/11/21 12:08:16;;;;;;;17.70;8.97;;;11.80;95.20;;;;;;4995117;28;20460;-69
2021/11/21 12:10:49;;;;;;;17.33;9.73;;;11.80;95.20;;;;;;4997282;28;20746;-70
2021/11/21 12:13:30;;;;;;;18.47;11.70;;;11.80;95.10;;;;;;4997437;28;20809;-70
2021/11/21 12:16:00;;;;;;;18.90;9.33;;;11.90;95.20;;;;;;4997217;28;20452;-70
2021/11/21 12:19:07;;;;;;;16.00;8.73;;;11.80;94.90;;;;;;4997935;28;20516;-70
2021/11/21 12:21:43;;;;;;;13.30;8.23;;;11.80;94.60;;;;;;4997328;28;20536;-70
2021/11/21 12:24:23;;;;;;;17.70;9.57;;;11.80;94.70;;;;;;4997235;28;20797;-70
2021/11/21 12:26:51;;;;;;;12.90;9.20;;;11.80;94.80;;;;;;4997097;28;20798;-70
2021/11/21 12:29:31;;;;;;;11.90;8.17;;;11.80;94.90;;;;;;4996708;28;20817;-70
2021/11/21 12:32:21;;;;;;;15.33;8.63;;;11.80;94.80;;;;;;4997152;28;20428;-70
2021/11/21 12:34:49;;;;;;;11.60;7.20;;;11.90;94.80;;;;;;4991970;28;20462;-70
2021/11/21 12:37:24;;;;;;;16.47;7.37;;;11.90;94.50;;;;;;4996836;28;20468;-70
2021/11/21 12:39:54;;;;;;;14.00;7.23;;;11.90;94.10;;;;;;4997032;28;20451;-70
2021/11/21 12:42:26;;;;;;;10.80;6.20;;;12.00;94.00;;;;;;4997097;28;20429;-70